createdAt,value
2018-01-03T00:00:32.288Z,5.18
2018-01-03T00:01:37.245Z,5.22
2018-01-03T00:02:42.519Z,5.20
2018-01-03T00:03:47.986Z,5.22
2018-01-03T00:04:52.911Z,5.19
2018-01-03T00:05:58.198Z,5.18
2018-01-03T00:07:03.258Z,5.21
2018-01-03T00:08:08.257Z,5.19
2018-01-03T00:09:13.279Z,5.17
2018-01-03T00:10:18.190Z,5.18
2018-01-03T00:11:23.176Z,5.18
2018-01-03T00:12:28.392Z,5.24
2018-01-03T00:13:33.314Z,5.25
2018-01-03T00:14:38.229Z,5.21
2018-01-03T00:15:43.178Z,5.21
2018-01-03T00:16:48.109Z,5.21
2018-01-03T00:17:53.074Z,5.19
2018-01-03T00:18:58.365Z,5.22
2018-01-03T00:20:03.276Z,5.21
2018-01-03T00:21:08.206Z,5.26
2018-01-03T00:22:13.102Z,5.26
2018-01-03T00:23:18.085Z,5.26
2018-01-03T00:24:22.975Z,5.34
2018-01-03T00:25:28.172Z,5.36
2018-01-03T00:26:33.104Z,5.35
2018-01-03T00:27:38.126Z,5.35
2018-01-03T00:28:43.053Z,5.36
2018-01-03T00:29:48.169Z,5.32
2018-01-03T00:30:53.211Z,5.34
2018-01-03T00:31:58.509Z,5.35
2018-01-03T00:33:03.463Z,5.32
2018-01-03T00:34:08.504Z,5.34
2018-01-03T00:35:13.442Z,5.43
2018-01-03T00:36:18.346Z,5.49
2018-01-03T00:37:23.333Z,5.47
2018-01-03T00:38:28.548Z,5.47
2018-01-03T00:39:33.524Z,5.45
2018-01-03T00:40:38.479Z,5.42
2018-01-03T00:41:43.433Z,5.43
2018-01-03T00:42:48.376Z,5.49
2018-01-03T00:43:53.358Z,5.48
2018-01-03T00:44:58.622Z,5.51
2018-01-03T00:46:03.516Z,5.51
2018-01-03T00:47:08.486Z,5.48
2018-01-03T00:48:13.427Z,5.53
2018-01-03T00:49:18.357Z,5.53
2018-01-03T00:50:23.541Z,5.61
2018-01-03T00:51:28.804Z,5.67
2018-01-03T00:52:33.728Z,5.65
2018-01-03T00:53:38.636Z,5.65
2018-01-03T00:54:43.567Z,5.74
2018-01-03T00:55:48.522Z,5.71
2018-01-03T00:56:53.818Z,5.71
2018-01-03T00:57:59.109Z,5.75
2018-01-03T00:59:04.045Z,5.74
2018-01-03T01:00:09.015Z,5.73
2018-01-03T01:01:13.939Z,5.80
2018-01-03T01:02:18.873Z,5.85
2018-01-03T01:03:23.804Z,5.84
2018-01-03T01:04:29.020Z,5.84
2018-01-03T01:05:33.933Z,5.86
2018-01-03T01:06:38.837Z,5.86
2018-01-03T01:07:43.771Z,5.85
2018-01-03T01:08:48.737Z,5.83
2018-01-03T01:09:53.652Z,5.83
2018-01-03T01:10:58.861Z,5.88
2018-01-03T01:12:03.542Z,5.88
2018-01-03T01:13:08.231Z,5.95
2018-01-03T01:14:12.821Z,5.97
2018-01-03T01:15:17.428Z,5.93
2018-01-03T01:16:22.231Z,5.96
2018-01-03T01:17:27.306Z,5.98
2018-01-03T01:18:32.326Z,5.96
2018-01-03T01:19:37.071Z,6.02
2018-01-03T01:20:41.947Z,6.02
2018-01-03T01:21:46.698Z,6.00
2018-01-03T01:22:51.532Z,5.98
2018-01-03T01:23:56.748Z,5.99
2018-01-03T01:25:01.547Z,6.07
2018-01-03T01:26:06.389Z,6.08
2018-01-03T01:27:11.262Z,6.10
2018-01-03T01:28:16.073Z,6.07
2018-01-03T01:29:20.916Z,6.05
2018-01-03T01:30:25.874Z,6.15
2018-01-03T01:31:30.718Z,6.10
2018-01-03T01:32:35.564Z,6.10
2018-01-03T01:33:41.271Z,6.10
2018-01-03T01:34:46.222Z,6.07
2018-01-03T01:35:51.162Z,6.05
2018-01-03T01:36:56.407Z,6.08
2018-01-03T01:38:01.333Z,6.08
2018-01-03T01:39:06.307Z,6.06
2018-01-03T01:40:11.285Z,6.05
2018-01-03T01:41:16.183Z,6.04
2018-01-03T01:42:21.108Z,6.05
2018-01-03T01:43:26.444Z,6.10
2018-01-03T01:44:31.354Z,6.12
2018-01-03T01:45:36.405Z,6.10
2018-01-03T01:46:41.299Z,6.10
2018-01-03T01:47:46.182Z,6.09
2018-01-03T01:48:55.299Z,6.25
2018-01-03T01:50:00.261Z,6.22
2018-01-03T01:51:05.199Z,6.19
2018-01-03T01:52:10.170Z,6.11
2018-01-03T01:53:15.053Z,6.13
2018-01-03T01:54:19.972Z,6.11
2018-01-03T01:55:25.171Z,6.10
2018-01-03T01:56:30.159Z,6.10
2018-01-03T01:57:35.103Z,6.08
2018-01-03T01:58:40.108Z,6.08
2018-01-03T01:59:44.966Z,6.13
2018-01-03T02:00:49.911Z,6.20
2018-01-03T02:01:55.209Z,6.19
2018-01-03T02:03:00.041Z,6.20
2018-01-03T02:04:04.911Z,6.18
2018-01-03T02:05:09.811Z,6.11
2018-01-03T02:06:14.789Z,6.07
2018-01-03T02:07:19.646Z,6.04
2018-01-03T02:08:24.768Z,6.09
2018-01-03T02:09:29.661Z,6.09
2018-01-03T02:10:34.608Z,6.07
2018-01-03T02:11:39.416Z,6.09
2018-01-03T02:12:44.351Z,6.08
2018-01-03T02:13:49.264Z,6.08
2018-01-03T02:14:54.588Z,6.10
2018-01-03T02:15:59.680Z,6.08
2018-01-03T02:17:05.289Z,6.09
2018-01-03T02:18:10.184Z,6.11
2018-01-03T02:19:15.141Z,6.12
2018-01-03T02:20:20.119Z,6.07
2018-01-03T02:21:26.151Z,6.02
2018-01-03T02:22:31.079Z,5.99
2018-01-03T02:23:36.100Z,5.98
2018-01-03T02:24:41.005Z,6.01
2018-01-03T02:25:45.932Z,5.99
2018-01-03T02:26:50.886Z,5.97
2018-01-03T02:27:56.097Z,5.97
2018-01-03T02:29:01.250Z,5.99
2018-01-03T02:30:06.190Z,6.00
2018-01-03T02:31:11.036Z,6.02
2018-01-03T02:32:15.913Z,6.06
2018-01-03T02:33:20.831Z,6.10
2018-01-03T02:34:26.085Z,6.13
2018-01-03T02:35:31.129Z,6.16
2018-01-03T02:36:36.020Z,6.17
2018-01-03T02:37:40.958Z,6.18
2018-01-03T02:38:45.923Z,6.20
2018-01-03T02:39:50.908Z,6.22
2018-01-03T02:40:56.154Z,6.22
2018-01-03T02:42:10.612Z,6.24
2018-01-03T02:43:15.587Z,6.27
2018-01-03T02:44:20.629Z,6.33
2018-01-03T02:45:25.640Z,6.39
2018-01-03T02:46:30.592Z,6.35
2018-01-03T02:47:35.834Z,6.39
2018-01-03T02:48:40.798Z,6.50
2018-01-03T02:49:45.807Z,6.54
2018-01-03T02:50:50.780Z,6.52
2018-01-03T02:51:55.786Z,6.48
2018-01-03T02:53:00.778Z,6.49
2018-01-03T02:54:06.089Z,6.53
2018-01-03T02:55:11.113Z,6.53
2018-01-03T02:56:16.097Z,6.48
2018-01-03T02:57:21.141Z,6.53
2018-01-03T02:58:26.248Z,6.52
2018-01-03T02:59:31.291Z,6.51
2018-01-03T03:00:37.269Z,6.49
2018-01-03T03:01:42.303Z,6.49
2018-01-03T03:02:47.267Z,6.47
2018-01-03T03:03:52.227Z,6.47
2018-01-03T03:04:57.282Z,6.49
2018-01-03T03:06:02.256Z,6.47
2018-01-03T03:07:07.518Z,6.48
2018-01-03T03:08:12.540Z,6.52
2018-01-03T03:09:17.514Z,6.48
2018-01-03T03:10:22.476Z,6.48
2018-01-03T03:11:27.426Z,6.48
2018-01-03T03:12:32.478Z,6.55
2018-01-03T03:13:37.839Z,6.56
2018-01-03T03:14:42.658Z,6.57
2018-01-03T03:15:47.473Z,6.59
2018-01-03T03:16:53.110Z,6.60
2018-01-03T03:17:58.133Z,6.73
2018-01-03T03:19:03.173Z,6.68
2018-01-03T03:20:08.475Z,6.66
2018-01-03T03:21:13.366Z,6.68
2018-01-03T03:22:18.172Z,6.66
2018-01-03T03:23:22.974Z,6.64
2018-01-03T03:24:27.819Z,6.69
2018-01-03T03:25:32.615Z,6.90
2018-01-03T03:26:37.901Z,6.82
2018-01-03T03:27:42.906Z,6.79
2018-01-03T03:28:47.853Z,6.79
2018-01-03T03:29:52.783Z,6.81
2018-01-03T03:30:57.748Z,6.86
2018-01-03T03:32:02.602Z,6.86
2018-01-03T03:33:07.800Z,6.85
2018-01-03T03:34:12.611Z,6.88
2018-01-03T03:35:17.581Z,6.96
2018-01-03T03:36:22.533Z,6.98
2018-01-03T03:37:27.572Z,7.04
2018-01-03T03:38:32.569Z,7.11
2018-01-03T03:39:37.978Z,7.08
2018-01-03T03:40:43.062Z,7.07
2018-01-03T03:41:48.032Z,7.19
2018-01-03T03:42:53.031Z,7.22
2018-01-03T03:43:58.024Z,7.26
2018-01-03T03:45:02.977Z,7.25
2018-01-03T03:46:08.246Z,7.17
2018-01-03T03:47:13.235Z,7.36
2018-01-03T03:48:18.241Z,7.41
2018-01-03T03:49:23.180Z,7.40
2018-01-03T03:50:28.182Z,7.37
2018-01-03T03:51:33.220Z,7.39
2018-01-03T03:52:38.514Z,7.46
2018-01-03T03:53:43.527Z,7.45
2018-01-03T03:54:48.541Z,7.41
2018-01-03T03:55:53.536Z,7.40
2018-01-03T03:56:58.618Z,7.51
2018-01-03T03:58:03.610Z,7.57
2018-01-03T03:59:08.991Z,7.56
2018-01-03T04:00:13.992Z,7.55
2018-01-03T04:01:19.026Z,7.58
2018-01-03T04:02:23.902Z,7.61
2018-01-03T04:03:28.971Z,7.54
2018-01-03T04:04:33.955Z,7.55
2018-01-03T04:05:39.224Z,7.55
2018-01-03T04:06:44.209Z,7.61
2018-01-03T04:07:49.238Z,7.69
2018-01-03T04:08:54.246Z,7.67
2018-01-03T04:09:59.278Z,7.73
2018-01-03T04:11:04.287Z,7.67
2018-01-03T04:12:09.543Z,7.62
2018-01-03T04:13:14.573Z,7.58
2018-01-03T04:14:19.378Z,7.68
2018-01-03T04:15:24.217Z,7.68
2018-01-03T04:16:29.062Z,7.68
2018-01-03T04:17:33.879Z,7.70
2018-01-03T04:18:38.988Z,7.69
2018-01-03T04:19:43.955Z,7.66
2018-01-03T04:20:48.844Z,7.66
2018-01-03T04:21:53.614Z,7.76
2018-01-03T04:22:58.357Z,7.82
2018-01-03T04:24:03.170Z,7.80
2018-01-03T04:25:08.282Z,7.79
2018-01-03T04:26:13.120Z,7.84
2018-01-03T04:27:17.936Z,7.81
2018-01-03T04:28:22.762Z,7.80
2018-01-03T04:29:27.742Z,7.82
2018-01-03T04:30:32.728Z,7.80
2018-01-03T04:31:38.006Z,7.96
2018-01-03T04:32:43.042Z,7.88
2018-01-03T04:33:47.978Z,7.85
2018-01-03T04:34:52.872Z,7.86
2018-01-03T04:35:57.783Z,7.94
2018-01-03T04:37:02.684Z,8.00
2018-01-03T04:38:07.945Z,8.01
2018-01-03T04:39:12.858Z,8.10
2018-01-03T04:40:17.731Z,8.08
2018-01-03T04:41:22.754Z,8.15
2018-01-03T04:42:27.648Z,8.20
2018-01-03T04:43:32.523Z,8.20
2018-01-03T04:44:37.760Z,8.13
2018-01-03T04:45:43.633Z,8.15
2018-01-03T04:46:48.591Z,8.36
2018-01-03T04:47:53.523Z,8.19
2018-01-03T04:48:58.382Z,8.19
2018-01-03T04:50:03.312Z,8.19
2018-01-03T04:51:08.487Z,8.21
2018-01-03T04:52:13.439Z,8.38
2018-01-03T04:53:18.326Z,8.32
2018-01-03T04:54:23.222Z,8.27
2018-01-03T04:55:28.110Z,8.32
2018-01-03T04:56:32.965Z,8.42
2018-01-03T04:57:38.155Z,8.37
2018-01-03T04:58:43.095Z,8.32
2018-01-03T04:59:48.102Z,8.32
2018-01-03T05:00:53.049Z,8.34
2018-01-03T05:01:57.948Z,8.35
2018-01-03T05:03:02.897Z,8.42
2018-01-03T05:04:08.132Z,8.46
2018-01-03T05:05:13.029Z,8.58
2018-01-03T05:06:17.918Z,8.60
2018-01-03T05:07:22.848Z,8.55
2018-01-03T05:08:27.798Z,8.53
2018-01-03T05:09:32.722Z,8.63
2018-01-03T05:10:37.789Z,8.73
2018-01-03T05:11:42.645Z,8.75
2018-01-03T05:12:47.495Z,8.70
2018-01-03T05:13:52.318Z,8.68
2018-01-03T05:14:57.193Z,8.74
2018-01-03T05:16:02.085Z,8.72
2018-01-03T05:17:07.879Z,8.81
2018-01-03T05:18:12.698Z,8.66
2018-01-03T05:19:17.583Z,8.57
2018-01-03T05:20:22.482Z,8.40
2018-01-03T05:21:27.436Z,8.12
2018-01-03T05:22:32.370Z,7.87
2018-01-03T05:23:37.530Z,7.75
2018-01-03T05:24:42.431Z,7.68
2018-01-03T05:25:47.364Z,7.50
2018-01-03T05:26:52.423Z,7.39
2018-01-03T05:27:57.333Z,7.43
2018-01-03T05:29:02.531Z,7.41
2018-01-03T05:30:07.478Z,7.43
2018-01-03T05:31:12.474Z,7.38
2018-01-03T05:32:18.664Z,7.38
2018-01-03T05:33:23.635Z,7.48
2018-01-03T05:34:28.499Z,7.53
2018-01-03T05:35:33.752Z,7.52
2018-01-03T05:36:38.973Z,7.50
2018-01-03T05:37:43.966Z,7.50
2018-01-03T05:38:48.906Z,7.51
2018-01-03T05:39:53.882Z,7.50
2018-01-03T05:40:58.881Z,7.51
2018-01-03T05:42:04.203Z,7.51
2018-01-03T05:43:09.252Z,7.53
2018-01-03T05:44:14.252Z,7.50
2018-01-03T05:45:19.226Z,7.49
2018-01-03T05:46:24.254Z,7.52
2018-01-03T05:47:29.240Z,7.55
2018-01-03T05:48:34.511Z,7.53
2018-01-03T05:49:40.145Z,7.59
2018-01-03T05:50:45.140Z,7.61
2018-01-03T05:51:50.068Z,7.65
2018-01-03T05:52:54.975Z,7.64
2018-01-03T05:53:59.944Z,7.75
2018-01-03T05:55:05.335Z,7.71
2018-01-03T05:56:10.308Z,7.59
2018-01-03T05:57:15.324Z,7.59
2018-01-03T05:58:20.298Z,7.46
2018-01-03T05:59:25.289Z,7.37
2018-01-03T06:00:30.332Z,7.30
2018-01-03T06:01:35.682Z,7.30
2018-01-03T06:02:40.701Z,7.09
2018-01-03T06:03:45.723Z,7.13
2018-01-03T06:04:50.982Z,7.10
2018-01-03T06:05:56.259Z,7.35
2018-01-03T06:07:01.342Z,7.44
2018-01-03T06:08:06.779Z,7.91
2018-01-03T06:09:11.799Z,7.99
2018-01-03T06:10:16.770Z,7.96
2018-01-03T06:11:21.765Z,7.97
2018-01-03T06:12:26.821Z,7.97
2018-01-03T06:13:31.806Z,7.94
2018-01-03T06:14:37.144Z,7.93
2018-01-03T06:15:42.078Z,7.83
2018-01-03T06:16:46.982Z,7.83
2018-01-03T06:17:51.901Z,7.84
2018-01-03T06:18:57.119Z,7.90
2018-01-03T06:20:02.067Z,7.88
2018-01-03T06:21:07.308Z,7.92
2018-01-03T06:22:12.204Z,7.83
2018-01-03T06:23:17.110Z,7.86
2018-01-03T06:24:22.002Z,7.84
2018-01-03T06:25:26.943Z,7.97
2018-01-03T06:26:32.146Z,7.97
2018-01-03T06:27:37.348Z,7.91
2018-01-03T06:28:42.290Z,7.84
2018-01-03T06:29:47.191Z,7.95
2018-01-03T06:30:52.067Z,8.01
2018-01-03T06:31:57.042Z,7.99
2018-01-03T06:33:01.974Z,7.93
2018-01-03T06:34:08.480Z,7.87
2018-01-03T06:35:13.444Z,7.83
2018-01-03T06:36:18.345Z,8.01
2018-01-03T06:37:23.278Z,8.06
2018-01-03T06:38:28.149Z,8.07
2018-01-03T06:39:33.111Z,7.94
2018-01-03T06:40:38.308Z,7.97
2018-01-03T06:41:43.183Z,7.97
2018-01-03T06:42:48.067Z,7.92
2018-01-03T06:43:53.094Z,7.90
2018-01-03T06:44:59.139Z,8.01
2018-01-03T06:46:04.091Z,8.02
2018-01-03T06:47:10.188Z,7.96
2018-01-03T06:48:15.236Z,7.90
2018-01-03T06:49:20.251Z,8.05
2018-01-03T06:50:25.438Z,7.86
2018-01-03T06:51:30.505Z,7.88
2018-01-03T06:52:35.532Z,7.91
2018-01-03T06:53:40.859Z,7.80
2018-01-03T06:54:45.778Z,7.80
2018-01-03T06:55:50.760Z,7.76
2018-01-03T06:56:55.686Z,7.67
2018-01-03T06:58:00.670Z,7.73
2018-01-03T06:59:05.568Z,7.77
2018-01-03T07:00:10.918Z,7.83
2018-01-03T07:01:15.806Z,7.75
2018-01-03T07:02:20.792Z,7.64
2018-01-03T07:03:25.729Z,7.53
2018-01-03T07:04:30.579Z,7.49
2018-01-03T07:05:35.461Z,7.53
2018-01-03T07:06:40.643Z,7.58
2018-01-03T07:07:45.562Z,7.48
2018-01-03T07:08:50.475Z,7.46
2018-01-03T07:09:55.335Z,7.46
2018-01-03T07:11:00.156Z,7.52
2018-01-03T07:12:04.458Z,7.52
2018-01-03T07:13:09.884Z,7.45
2018-01-03T07:14:14.647Z,7.43
2018-01-03T07:15:19.503Z,7.43
2018-01-03T07:16:24.413Z,7.41
2018-01-03T07:17:29.232Z,7.46
2018-01-03T07:18:34.805Z,7.46
2018-01-03T07:19:40.178Z,7.35
2018-01-03T07:20:45.112Z,7.42
2018-01-03T07:21:50.094Z,7.37
2018-01-03T07:22:55.012Z,7.46
2018-01-03T07:23:59.966Z,7.38
2018-01-03T07:25:04.934Z,7.34
2018-01-03T07:26:10.434Z,7.44
2018-01-03T07:27:15.555Z,7.35
2018-01-03T07:28:20.640Z,7.36
2018-01-03T07:29:25.618Z,7.30
2018-01-03T07:30:30.695Z,7.32
2018-01-03T07:31:35.780Z,7.30
2018-01-03T07:32:41.178Z,7.44
2018-01-03T07:33:46.157Z,7.32
2018-01-03T07:34:51.191Z,7.26
2018-01-03T07:35:56.153Z,7.28
2018-01-03T07:37:01.343Z,7.26
2018-01-03T07:38:06.371Z,7.25
2018-01-03T07:39:11.760Z,7.26
2018-01-03T07:40:16.649Z,7.26
2018-01-03T07:41:21.583Z,7.20
2018-01-03T07:42:26.490Z,7.23
2018-01-03T07:43:31.290Z,7.18
2018-01-03T07:44:36.234Z,7.23
2018-01-03T07:45:41.586Z,7.24
2018-01-03T07:46:46.503Z,7.26
2018-01-03T07:47:51.430Z,7.33
2018-01-03T07:48:56.446Z,7.24
2018-01-03T07:50:01.435Z,7.22
2018-01-03T07:51:06.400Z,7.12
2018-01-03T07:52:11.937Z,7.14
2018-01-03T07:53:16.937Z,7.25
2018-01-03T07:54:22.013Z,7.21
2018-01-03T07:55:27.020Z,7.23
2018-01-03T07:56:31.980Z,7.23
2018-01-03T07:57:36.943Z,7.14
2018-01-03T07:58:42.406Z,7.29
2018-01-03T07:59:47.402Z,7.27
2018-01-03T08:00:52.551Z,7.22
2018-01-03T08:01:57.649Z,7.33
2018-01-03T08:03:02.646Z,7.27
2018-01-03T08:04:07.667Z,7.35
2018-01-03T08:05:13.127Z,7.26
2018-01-03T08:06:18.148Z,7.34
2018-01-03T08:07:23.189Z,7.41
2018-01-03T08:08:28.243Z,7.50
2018-01-03T08:09:33.220Z,7.50
2018-01-03T08:10:38.298Z,7.60
2018-01-03T08:11:44.121Z,7.59
2018-01-03T08:12:49.091Z,7.61
2018-01-03T08:13:54.070Z,7.65
2018-01-03T08:14:59.327Z,7.62
2018-01-03T08:16:04.312Z,7.57
2018-01-03T08:17:09.433Z,7.62
2018-01-03T08:18:15.265Z,7.61
2018-01-03T08:19:20.361Z,7.64
2018-01-03T08:20:25.406Z,7.55
2018-01-03T08:21:30.417Z,7.59
2018-01-03T08:22:35.477Z,7.62
2018-01-03T08:23:40.509Z,7.55
2018-01-03T08:24:45.997Z,7.48
2018-01-03T08:25:51.012Z,7.46
2018-01-03T08:26:56.018Z,7.67
2018-01-03T08:28:01.060Z,7.58
2018-01-03T08:29:06.066Z,7.62
2018-01-03T08:30:11.135Z,7.62
2018-01-03T08:31:16.640Z,7.63
2018-01-03T08:32:21.677Z,7.64
2018-01-03T08:33:26.827Z,7.62
2018-01-03T08:34:31.929Z,7.57
2018-01-03T08:35:36.974Z,7.59
2018-01-03T08:36:41.989Z,7.60
2018-01-03T08:37:46.994Z,7.54
2018-01-03T08:38:52.020Z,7.62
2018-01-03T08:39:57.104Z,7.65
2018-01-03T08:41:02.095Z,7.65
2018-01-03T08:42:07.218Z,7.63
2018-01-03T08:43:12.304Z,7.62
2018-01-03T08:44:17.764Z,7.47
2018-01-03T08:45:23.731Z,6.81
2018-01-03T08:46:28.896Z,6.28
2018-01-03T08:47:34.001Z,5.54
2018-01-03T08:48:39.046Z,5.14
2018-01-03T08:49:44.077Z,4.97
2018-01-03T08:50:49.464Z,4.97
2018-01-03T08:51:54.593Z,4.92
2018-01-03T08:52:59.635Z,4.77
2018-01-03T08:54:04.624Z,4.70
2018-01-03T08:55:09.628Z,4.65
2018-01-03T08:56:15.128Z,4.73
2018-01-03T08:57:20.602Z,4.60
2018-01-03T08:58:25.636Z,4.70
2018-01-03T08:59:30.642Z,4.81
2018-01-03T09:00:35.759Z,4.80
2018-01-03T09:01:40.744Z,4.91
2018-01-03T09:02:46.378Z,4.88
2018-01-03T09:03:51.765Z,4.94
2018-01-03T09:04:56.796Z,4.98
2018-01-03T09:06:01.924Z,5.10
2018-01-03T09:07:06.943Z,5.17
2018-01-03T09:08:11.948Z,5.17
2018-01-03T09:09:17.057Z,5.16
2018-01-03T09:10:22.586Z,5.19
2018-01-03T09:11:27.573Z,5.24
2018-01-03T09:12:32.647Z,5.28
2018-01-03T09:13:37.906Z,5.27
2018-01-03T09:14:43.020Z,5.31
2018-01-03T09:15:48.024Z,5.35
2018-01-03T09:16:53.549Z,5.33
2018-01-03T09:17:58.592Z,5.33
2018-01-03T09:19:03.628Z,5.39
2018-01-03T09:20:09.574Z,5.37
2018-01-03T09:21:14.856Z,5.36
2018-01-03T09:22:19.919Z,5.36
2018-01-03T09:23:25.294Z,5.39
2018-01-03T09:24:30.310Z,5.41
2018-01-03T09:25:35.341Z,5.32
2018-01-03T09:26:40.349Z,5.37
2018-01-03T09:27:45.429Z,5.33
2018-01-03T09:28:50.522Z,5.30
2018-01-03T09:29:56.138Z,5.21
2018-01-03T09:31:01.136Z,5.17
2018-01-03T09:32:06.452Z,5.11
2018-01-03T09:33:11.526Z,5.03
2018-01-03T09:34:16.634Z,5.06
2018-01-03T09:35:21.634Z,5.02
2018-01-03T09:36:28.246Z,5.01
2018-01-03T09:38:52.266Z,5.05
2018-01-03T09:39:57.256Z,4.96
2018-01-03T09:41:02.281Z,4.90
2018-01-03T09:42:07.309Z,4.90
2018-01-03T09:43:12.687Z,4.87
2018-01-03T09:44:17.633Z,4.83
2018-01-03T09:45:22.644Z,4.85
2018-01-03T09:46:27.646Z,4.84
2018-01-03T09:47:32.556Z,4.89
2018-01-03T09:48:37.487Z,4.85
2018-01-03T09:49:42.767Z,4.88
2018-01-03T09:50:47.665Z,4.89
2018-01-03T09:51:53.132Z,4.90
2018-01-03T09:52:58.112Z,4.91
2018-01-03T09:54:03.197Z,4.93
2018-01-03T09:55:08.277Z,4.91
2018-01-03T09:56:13.931Z,4.87
2018-01-03T09:57:18.925Z,4.86
2018-01-03T09:58:23.876Z,4.89
2018-01-03T09:59:28.817Z,4.92
2018-01-03T10:00:33.790Z,4.71
2018-01-03T10:01:38.743Z,4.62
2018-01-03T10:02:44.008Z,4.71
2018-01-03T10:03:49.836Z,4.61
2018-01-03T10:04:54.768Z,4.61
2018-01-03T10:05:59.711Z,4.76
2018-01-03T10:07:04.638Z,4.86
2018-01-03T10:08:09.573Z,4.99
2018-01-03T10:09:14.848Z,4.90
2018-01-03T10:10:19.798Z,4.97
2018-01-03T10:11:24.891Z,5.14
2018-01-03T10:12:29.812Z,5.20
2018-01-03T10:13:34.801Z,5.30
2018-01-03T10:14:39.752Z,5.16
2018-01-03T10:15:45.270Z,4.95
2018-01-03T10:16:50.330Z,4.83
2018-01-03T10:17:55.332Z,4.78
2018-01-03T10:19:00.309Z,4.79
2018-01-03T10:20:05.340Z,4.70
2018-01-03T10:21:10.298Z,4.78
2018-01-03T10:22:15.798Z,4.69
2018-01-03T10:23:21.282Z,4.58
2018-01-03T10:24:26.280Z,4.56
2018-01-03T10:25:31.189Z,4.52
2018-01-03T10:26:36.024Z,4.33
2018-01-03T10:27:40.993Z,4.19
2018-01-03T10:28:46.169Z,4.22
2018-01-03T10:29:51.740Z,4.21
2018-01-03T10:30:56.643Z,4.19
2018-01-03T10:32:01.681Z,4.22
2018-01-03T10:33:06.826Z,4.18
2018-01-03T10:34:11.805Z,4.15
2018-01-03T10:35:17.164Z,4.14
2018-01-03T10:36:22.131Z,4.07
2018-01-03T10:37:27.154Z,4.06
2018-01-03T10:38:32.120Z,4.06
2018-01-03T10:39:37.038Z,4.04
2018-01-03T10:40:41.960Z,4.06
2018-01-03T10:41:47.312Z,4.30
2018-01-03T10:42:52.252Z,4.45
2018-01-03T10:43:57.207Z,4.53
2018-01-03T10:45:02.133Z,4.51
2018-01-03T10:46:07.026Z,4.58
2018-01-03T10:47:12.104Z,4.55
2018-01-03T10:48:17.478Z,4.63
2018-01-03T10:49:22.546Z,4.66
2018-01-03T10:50:27.552Z,4.74
2018-01-03T10:51:32.495Z,4.74
2018-01-03T10:52:37.408Z,4.69
2018-01-03T10:53:42.389Z,4.83
2018-01-03T10:54:47.848Z,4.85
2018-01-03T10:55:52.831Z,5.03
2018-01-03T10:56:57.921Z,5.07
2018-01-03T10:58:02.976Z,5.15
2018-01-03T10:59:07.983Z,5.22
2018-01-03T11:00:13.067Z,5.11
2018-01-03T11:01:18.513Z,5.09
2018-01-03T11:02:23.479Z,5.08
2018-01-03T11:03:32.510Z,5.06
2018-01-03T11:04:37.418Z,5.14
2018-01-03T11:05:42.381Z,5.23
2018-01-03T11:06:47.754Z,5.21
2018-01-03T11:07:53.225Z,5.15
2018-01-03T11:08:58.377Z,5.21
2018-01-03T11:10:03.394Z,5.29
2018-01-03T11:11:08.413Z,5.25
2018-01-03T11:12:13.547Z,5.35
2018-01-03T11:13:18.595Z,5.39
2018-01-03T11:14:24.061Z,5.32
2018-01-03T11:15:29.164Z,5.36
2018-01-03T11:16:35.429Z,5.38
2018-01-03T11:17:40.437Z,5.34
2018-01-03T11:18:45.693Z,5.31
2018-01-03T11:19:50.709Z,5.30
2018-01-03T11:20:56.303Z,5.26
2018-01-03T11:22:01.297Z,5.24
2018-01-03T11:23:06.302Z,5.21
2018-01-03T11:24:11.304Z,5.23
2018-01-03T11:25:16.360Z,5.17
2018-01-03T11:26:21.487Z,5.13
2018-01-03T11:27:26.900Z,5.22
2018-01-03T11:28:31.856Z,5.23
2018-01-03T11:29:36.835Z,5.20
2018-01-03T11:30:41.920Z,5.14
2018-01-03T11:31:46.982Z,5.17
2018-01-03T11:32:51.986Z,5.24
2018-01-03T11:33:57.587Z,5.39
2018-01-03T11:35:02.801Z,5.36
2018-01-03T11:36:07.734Z,5.35
2018-01-03T11:37:12.782Z,5.32
2018-01-03T11:38:17.956Z,5.45
2018-01-03T11:39:22.914Z,5.52
2018-01-03T11:40:28.289Z,5.50
2018-01-03T11:41:33.309Z,5.49
2018-01-03T11:42:38.104Z,5.75
2018-01-03T11:43:43.331Z,5.61
2018-01-03T11:44:48.354Z,5.64
2018-01-03T11:45:53.244Z,5.74
2018-01-03T11:46:58.679Z,5.70
2018-01-03T11:48:03.593Z,5.58
2018-01-03T11:49:08.727Z,5.60
2018-01-03T11:50:13.806Z,5.68
2018-01-03T11:51:18.871Z,5.54
2018-01-03T11:52:24.076Z,5.62
2018-01-03T11:53:29.451Z,5.72
2018-01-03T11:54:34.444Z,5.78
2018-01-03T11:55:39.388Z,5.68
2018-01-03T11:56:44.909Z,5.72
2018-01-03T11:57:50.029Z,5.84
2018-01-03T11:58:54.988Z,5.81
2018-01-03T12:00:00.514Z,5.79
2018-01-03T12:01:05.593Z,5.89
2018-01-03T12:02:10.650Z,5.88
2018-01-03T12:03:15.810Z,5.75
2018-01-03T12:04:20.818Z,5.71
2018-01-03T12:05:25.946Z,5.64
2018-01-03T12:06:31.889Z,5.68
2018-01-03T12:07:38.758Z,5.70
2018-01-03T12:08:44.339Z,5.57
2018-01-03T12:09:49.357Z,5.50
2018-01-03T12:10:54.554Z,5.45
2018-01-03T12:11:59.648Z,5.36
2018-01-03T12:13:05.103Z,5.26
2018-01-03T12:14:10.235Z,5.17
2018-01-03T12:15:16.802Z,5.20
2018-01-03T12:16:22.045Z,5.15
2018-01-03T12:17:27.054Z,5.10
2018-01-03T12:18:32.049Z,5.08
2018-01-03T12:19:37.493Z,4.97
2018-01-03T12:20:42.543Z,5.09
2018-01-03T12:21:47.543Z,5.16
2018-01-03T12:22:52.656Z,5.15
2018-01-03T12:23:57.692Z,5.16
2018-01-03T12:25:02.876Z,5.13
2018-01-03T12:26:08.380Z,5.01
2018-01-03T12:27:13.618Z,4.94
2018-01-03T12:28:19.739Z,4.88
2018-01-03T12:29:25.527Z,4.86
2018-01-03T12:30:32.426Z,4.92
2018-01-03T12:31:37.599Z,4.94
2018-01-03T12:32:43.195Z,4.95
2018-01-03T12:33:48.248Z,4.87
2018-01-03T12:34:53.535Z,4.88
2018-01-03T12:35:58.610Z,4.86
2018-01-03T12:37:03.618Z,4.86
2018-01-03T12:38:08.814Z,4.90
2018-01-03T12:39:14.626Z,5.00
2018-01-03T12:40:19.652Z,4.95
2018-01-03T12:41:24.952Z,4.88
2018-01-03T12:42:30.281Z,4.85
2018-01-03T12:43:35.340Z,4.88
2018-01-03T12:44:40.776Z,4.82
2018-01-03T12:45:46.552Z,4.81
2018-01-03T12:46:51.831Z,4.83
2018-01-03T12:47:58.253Z,4.80
2018-01-03T12:49:03.710Z,4.80
2018-01-03T12:50:09.645Z,4.76
2018-01-03T12:51:15.236Z,4.80
2018-01-03T12:52:20.303Z,4.81
2018-01-03T12:53:25.962Z,4.93
2018-01-03T12:54:31.134Z,4.92
2018-01-03T12:55:36.141Z,4.98
2018-01-03T12:56:41.140Z,4.99
2018-01-03T12:57:46.657Z,4.99
2018-01-03T12:58:51.773Z,4.87
2018-01-03T12:59:56.974Z,4.85
2018-01-03T13:01:02.087Z,4.93
2018-01-03T13:02:07.541Z,4.97
2018-01-03T13:03:12.626Z,5.03
2018-01-03T13:04:18.150Z,5.20
2018-01-03T13:05:23.203Z,5.08
2018-01-03T13:06:28.266Z,4.91
2018-01-03T13:07:33.431Z,5.00
2018-01-03T13:08:38.491Z,5.13
2018-01-03T13:09:43.736Z,5.07
2018-01-03T13:10:49.093Z,5.03
2018-01-03T13:11:54.622Z,5.18
2018-01-03T13:12:59.740Z,5.15
2018-01-03T13:14:04.934Z,5.16
2018-01-03T13:15:10.134Z,5.09
2018-01-03T13:16:15.979Z,4.99
2018-01-03T13:17:21.475Z,4.92
2018-01-03T13:18:26.374Z,4.92
2018-01-03T13:19:31.443Z,4.94
2018-01-03T13:20:36.517Z,4.93
2018-01-03T13:21:41.439Z,4.84
2018-01-03T13:22:46.735Z,4.85
2018-01-03T13:23:52.313Z,4.92
2018-01-03T13:24:57.376Z,4.84
2018-01-03T13:26:02.661Z,4.90
2018-01-03T13:27:08.142Z,4.90
2018-01-03T13:28:13.329Z,4.90
2018-01-03T13:29:18.328Z,4.86
2018-01-03T13:30:24.204Z,4.83
2018-01-03T13:31:29.313Z,4.88
2018-01-03T13:32:34.227Z,4.83
2018-01-03T13:33:39.434Z,4.76
2018-01-03T13:34:44.550Z,4.88
2018-01-03T13:35:49.622Z,4.88
2018-01-03T13:36:55.051Z,4.85
2018-01-03T13:38:00.085Z,4.88
2018-01-03T13:39:05.510Z,4.95
2018-01-03T13:40:10.496Z,4.90
2018-01-03T13:41:15.606Z,4.89
2018-01-03T13:42:20.586Z,4.86
2018-01-03T13:43:25.927Z,4.88
2018-01-03T13:44:31.806Z,4.89
2018-01-03T13:45:36.818Z,4.88
2018-01-03T13:46:42.276Z,4.95
2018-01-03T13:47:47.629Z,5.01
2018-01-03T13:48:53.938Z,4.97
2018-01-03T13:50:00.021Z,4.98
2018-01-03T13:51:05.097Z,5.05
2018-01-03T13:52:10.276Z,4.95
2018-01-03T13:53:15.452Z,4.96
2018-01-03T13:54:20.752Z,5.06
2018-01-03T13:55:25.965Z,5.06
2018-01-03T13:56:32.103Z,5.01
2018-01-03T13:57:37.662Z,4.99
2018-01-03T13:58:47.593Z,4.95
2018-01-03T14:00:05.034Z,4.94
2018-01-03T14:01:22.183Z,4.94
2018-01-03T14:02:33.008Z,4.93
2018-01-03T14:03:52.268Z,4.92
2018-01-03T14:06:20.476Z,4.89
2018-01-03T14:07:28.425Z,4.92
2018-01-03T14:08:33.365Z,4.95
2018-01-03T14:09:39.052Z,4.98
2018-01-03T14:10:44.135Z,5.04
2018-01-03T14:11:49.327Z,5.07
2018-01-03T14:12:55.544Z,5.04
2018-01-03T14:14:04.005Z,5.07
2018-01-03T14:15:09.104Z,5.05
2018-01-03T14:16:14.805Z,5.04
2018-01-03T14:17:20.468Z,5.00
2018-01-03T14:18:26.237Z,4.98
2018-01-03T14:19:31.812Z,4.95
2018-01-03T14:20:38.720Z,5.07
2018-01-03T14:21:44.612Z,5.09
2018-01-03T14:22:52.225Z,5.04
2018-01-03T14:23:57.644Z,4.96
2018-01-03T14:25:02.727Z,5.19
2018-01-03T14:26:07.828Z,5.20
2018-01-03T14:27:15.360Z,5.16
2018-01-03T14:28:20.506Z,5.23
2018-01-03T14:29:27.239Z,5.17
2018-01-03T14:30:32.441Z,5.10